Date,TemperatureHighF,TemperatureAvgF,TemperatureLowF,DewpointHighF,DewpointAvgF,DewpointLowF,HumidityHigh,HumidityAvg,HumidityLow,PressureMaxIn,PressureMinIn,WindSpeedMaxMPH,WindSpeedAvgMPH,GustSpeedMaxMPH,PrecipitationSumIn
2013-11-1,76,62,47,-100,-100,-100,0,0,100,0.00,40.00,0,-999,0,0.00
2013-11-2,68,57,45,-100,-100,-100,0,0,100,0.00,40.00,0,-999,0,0.00
2013-11-3,66,54,37,-100,-100,-100,0,0,100,0.00,40.00,0,-999,0,0.00
2013-11-4,65,59,54,-100,-100,-100,0,0,100,0.00,40.00,0,-999,0,0.00
2013-11-5,71,67,62,-100,-100,-100,0,0,100,0.00,40.00,0,-999,0,0.00
2013-11-6,70,62,54,-100,-100,-100,0,0,100,0.00,40.00,0,-999,0,0.00
2013-11-7,63,51,43,-100,-100,-100,0,0,100,0.00,40.00,0,-999,0,0.00
2013-11-8,63,54,43,-100,-100,-100,0,0,100,0.00,40.00,0,-999,0,0.00
2013-11-9,62,56,51,-100,-100,-100,0,0,100,0.00,40.00,0,-999,0,0.00
2013-11-10,68,56,48,-100,-100,-100,0,0,100,0.00,40.00,0,-999,0,0.00
2013-11-11,72,56,43,-100,-100,-100,0,0,100,0.00,40.00,0,-999,0,0.00
2013-11-12,57,51,40,-100,-100,-100,0,0,100,0.00,40.00,0,-999,0,0.00
2013-11-13,54,43,31,-100,-100,-100,0,0,100,0.00,40.00,0,-999,0,0.00
2013-11-14,62,45,29,-100,-100,-100,0,0,100,0.00,40.00,0,-999,0,0.00
2013-11-15,74,61,51,-100,-100,-100,0,0,100,0.00,40.00,0,-999,0,0.00
2013-11-16,77,69,64,-100,-100,-100,0,0,100,0.00,40.00,0,-999,0,0.00
2013-11-17,85,73,63,-100,-100,-100,0,0,100,0.00,40.00,0,-999,0,0.00
2013-11-18,75,65,57,-100,-100,-100,0,0,100,0.00,40.00,0,-999,0,0.00
2013-11-19,68,58,48,-100,-100,-100,0,0,100,0.00,40.00,0,-999,0,0.00
2013-11-20,65,56,42,-100,-100,-100,0,0,100,0.00,40.00,0,-999,0,0.00
2013-11-21,73,68,63,-100,-100,-100,0,0,100,0.00,40.00,0,-999,0,0.00
2013-11-22,70,43,39,-100,-100,-100,0,0,100,0.00,40.00,0,-999,0,0.00
2013-11-23,45,42,40,-100,-100,-100,0,0,100,0.00,40.00,0,-999,0,0.00
2013-11-24,43,39,36,-100,-100,-100,0,0,100,0.00,40.00,0,-999,0,0.00
2013-11-25,40,38,36,-100,-100,-100,0,0,100,0.00,40.00,0,-999,0,0.00
2013-11-26,44,39,36,-100,-100,-100,0,0,100,0.00,40.00,0,-999,0,0.00
2013-11-27,47,40,34,-100,-100,-100,0,0,100,0.00,40.00,0,-999,0,0.00
2013-11-28,54,40,28,-100,-100,-100,0,0,100,0.00,40.00,0,-999,0,0.00
2013-11-29,59,42,28,-100,-100,-100,0,0,100,0.00,40.00,0,-999,0,0.00
2013-11-30,62,52,36,-100,-100,-100,0,0,100,0.00,40.00,0,-999,0,0.00